sensor_id;sensor_type;location;lat;lon;timestamp;P1;durP1;ratioP1;P2;durP2;ratioP2
20306;SDS011;10312;52.434;13.206;2024-03-02T00:00:51;39.25;;;22.70;;
20306;SDS011;10312;52.434;13.206;2024-03-02T00:03:19;43.15;;;23.58;;
20306;SDS011;10312;52.434;13.206;2024-03-02T00:05:50;40.75;;;22.92;;
20306;SDS011;10312;52.434;13.206;2024-03-02T00:08:27;37.75;;;21.80;;
20306;SDS011;10312;52.434;13.206;2024-03-02T00:10:58;39.72;;;22.83;;
20306;SDS011;10312;52.434;13.206;2024-03-02T00:13:25;40.28;;;22.20;;
20306;SDS011;10312;52.434;13.206;2024-03-02T00:15:54;38.58;;;22.42;;
20306;SDS011;10312;52.434;13.206;2024-03-02T00:18:26;40.17;;;23.20;;
20306;SDS011;10312;52.434;13.206;2024-03-02T00:20:54;38.25;;;22.27;;
20306;SDS011;10312;52.434;13.206;2024-03-02T00:23:24;40.63;;;23.27;;
20306;SDS011;10312;52.434;13.206;2024-03-02T00:25:56;40.58;;;21.58;;
20306;SDS011;10312;52.434;13.206;2024-03-02T00:28:25;40.03;;;22.98;;
20306;SDS011;10312;52.434;13.206;2024-03-02T00:30:58;39.17;;;22.45;;
20306;SDS011;10312;52.434;13.206;2024-03-02T00:33:33;40.50;;;23.45;;
20306;SDS011;10312;52.434;13.206;2024-03-02T00:36:02;38.08;;;23.40;;
20306;SDS011;10312;52.434;13.206;2024-03-02T00:38:30;41.13;;;23.60;;
20306;SDS011;10312;52.434;13.206;2024-03-02T00:40:58;41.92;;;22.90;;
20306;SDS011;10312;52.434;13.206;2024-03-02T00:43:35;39.78;;;23.02;;
20306;SDS011;10312;52.434;13.206;2024-03-02T00:46:12;37.80;;;21.67;;
20306;SDS011;10312;52.434;13.206;2024-03-02T00:48:47;38.20;;;21.98;;
20306;SDS011;10312;52.434;13.206;2024-03-02T00:51:15;36.90;;;21.65;;
20306;SDS011;10312;52.434;13.206;2024-03-02T00:53:41;43.92;;;23.73;;
20306;SDS011;10312;52.434;13.206;2024-03-02T00:56:11;39.80;;;21.05;;
20306;SDS011;10312;52.434;13.206;2024-03-02T00:58:39;41.95;;;23.75;;
20306;SDS011;10312;52.434;13.206;2024-03-02T01:01:06;37.88;;;23.17;;
20306;SDS011;10312;52.434;13.206;2024-03-02T01:03:34;39.75;;;22.98;;
20306;SDS011;10312;52.434;13.206;2024-03-02T01:06:01;39.38;;;22.33;;
20306;SDS011;10312;52.434;13.206;2024-03-02T01:08:28;38.53;;;23.25;;
20306;SDS011;10312;52.434;13.206;2024-03-02T01:10:55;38.38;;;22.00;;
20306;SDS011;10312;52.434;13.206;2024-03-02T01:13:22;39.40;;;23.55;;
20306;SDS011;10312;52.434;13.206;2024-03-02T01:15:50;40.35;;;22.75;;
20306;SDS011;10312;52.434;13.206;2024-03-02T01:18:17;36.72;;;22.27;;
20306;SDS011;10312;52.434;13.206;2024-03-02T01:20:44;36.92;;;22.05;;
20306;SDS011;10312;52.434;13.206;2024-03-02T01:23:11;36.63;;;21.60;;
20306;SDS011;10312;52.434;13.206;2024-03-02T01:25:38;36.45;;;22.20;;
20306;SDS011;10312;52.434;13.206;2024-03-02T01:28:05;41.70;;;22.27;;
20306;SDS011;10312;52.434;13.206;2024-03-02T01:30:32;37.13;;;22.52;;
20306;SDS011;10312;52.434;13.206;2024-03-02T01:32:59;38.47;;;21.38;;
20306;SDS011;10312;52.434;13.206;2024-03-02T01:35:26;39.78;;;23.05;;
20306;SDS011;10312;52.434;13.206;2024-03-02T01:37:54;41.17;;;23.40;;
20306;SDS011;10312;52.434;13.206;2024-03-02T01:40:21;37.88;;;22.40;;
20306;SDS011;10312;52.434;13.206;2024-03-02T01:42:50;42.90;;;23.50;;
20306;SDS011;10312;52.434;13.206;2024-03-02T01:45:17;42.30;;;23.90;;
20306;SDS011;10312;52.434;13.206;2024-03-02T01:47:44;34.42;;;21.75;;
20306;SDS011;10312;52.434;13.206;2024-03-02T01:50:11;40.22;;;23.15;;
20306;SDS011;10312;52.434;13.206;2024-03-02T01:52:38;38.20;;;22.50;;
20306;SDS011;10312;52.434;13.206;2024-03-02T01:55:05;40.97;;;24.05;;
20306;SDS011;10312;52.434;13.206;2024-03-02T01:57:33;39.03;;;24.05;;
20306;SDS011;10312;52.434;13.206;2024-03-02T02:00:00;42.75;;;24.58;;
20306;SDS011;10312;52.434;13.206;2024-03-02T02:02:37;44.30;;;22.63;;
20306;SDS011;10312;52.434;13.206;2024-03-02T02:05:03;41.72;;;23.63;;
20306;SDS011;10312;52.434;13.206;2024-03-02T02:07:30;41.25;;;24.05;;
20306;SDS011;10312;52.434;13.206;2024-03-02T02:09:58;43.90;;;24.95;;
20306;SDS011;10312;52.434;13.206;2024-03-02T02:12:25;40.90;;;22.38;;
20306;SDS011;10312;52.434;13.206;2024-03-02T02:14:52;41.13;;;23.50;;
20306;SDS011;10312;52.434;13.206;2024-03-02T02:17:20;41.13;;;22.33;;
20306;SDS011;10312;52.434;13.206;2024-03-02T02:19:50;38.83;;;23.40;;
20306;SDS011;10312;52.434;13.206;2024-03-02T02:22:16;38.95;;;22.38;;
20306;SDS011;10312;52.434;13.206;2024-03-02T02:24:43;44.72;;;24.30;;
20306;SDS011;10312;52.434;13.206;2024-03-02T02:27:11;42.95;;;24.48;;
20306;SDS011;10312;52.434;13.206;2024-03-02T02:29:41;43.42;;;23.40;;
20306;SDS011;10312;52.434;13.206;2024-03-02T02:32:08;42.20;;;23.85;;
20306;SDS011;10312;52.434;13.206;2024-03-02T02:34:35;38.47;;;22.60;;
20306;SDS011;10312;52.434;13.206;2024-03-02T02:37:02;43.63;;;23.65;;
20306;SDS011;10312;52.434;13.206;2024-03-02T02:39:29;39.55;;;22.25;;
20306;SDS011;10312;52.434;13.206;2024-03-02T02:41:56;42.05;;;24.33;;
20306;SDS011;10312;52.434;13.206;2024-03-02T02:44:23;41.13;;;23.25;;
20306;SDS011;10312;52.434;13.206;2024-03-02T02:46:56;43.30;;;23.65;;
20306;SDS011;10312;52.434;13.206;2024-03-02T02:49:23;41.08;;;23.27;;
20306;SDS011;10312;52.434;13.206;2024-03-02T02:51:50;35.67;;;21.80;;
20306;SDS011;10312;52.434;13.206;2024-03-02T02:54:17;40.40;;;23.23;;
20306;SDS011;10312;52.434;13.206;2024-03-02T02:56:44;38.92;;;23.10;;
20306;SDS011;10312;52.434;13.206;2024-03-02T02:59:11;40.42;;;23.25;;
20306;SDS011;10312;52.434;13.206;2024-03-02T03:01:39;38.45;;;22.80;;
20306;SDS011;10312;52.434;13.206;2024-03-02T03:04:06;42.40;;;23.88;;
20306;SDS011;10312;52.434;13.206;2024-03-02T03:06:33;49.10;;;26.73;;
20306;SDS011;10312;52.434;13.206;2024-03-02T03:09:00;48.92;;;27.83;;
20306;SDS011;10312;52.434;13.206;2024-03-02T03:11:26;47.10;;;27.52;;
20306;SDS011;10312;52.434;13.206;2024-03-02T03:13:53;53.03;;;29.77;;
20306;SDS011;10312;52.434;13.206;2024-03-02T03:16:21;49.00;;;28.15;;
20306;SDS011;10312;52.434;13.206;2024-03-02T03:18:48;53.42;;;31.52;;
20306;SDS011;10312;52.434;13.206;2024-03-02T03:21:21;54.35;;;32.63;;
20306;SDS011;10312;52.434;13.206;2024-03-02T03:23:48;53.35;;;31.40;;
20306;SDS011;10312;52.434;13.206;2024-03-02T03:26:17;59.28;;;34.60;;
20306;SDS011;10312;52.434;13.206;2024-03-02T03:28:44;53.95;;;31.63;;
20306;SDS011;10312;52.434;13.206;2024-03-02T03:31:11;56.35;;;32.28;;
20306;SDS011;10312;52.434;13.206;2024-03-02T03:33:38;58.05;;;34.15;;
20306;SDS011;10312;52.434;13.206;2024-03-02T03:36:05;54.97;;;31.83;;
20306;SDS011;10312;52.434;13.206;2024-03-02T03:38:32;56.13;;;32.75;;
20306;SDS011;10312;52.434;13.206;2024-03-02T03:40:59;61.47;;;35.20;;
20306;SDS011;10312;52.434;13.206;2024-03-02T03:43:26;60.25;;;35.58;;
20306;SDS011;10312;52.434;13.206;2024-03-02T03:45:53;54.05;;;31.73;;
20306;SDS011;10312;52.434;13.206;2024-03-02T03:48:20;53.42;;;32.15;;
20306;SDS011;10312;52.434;13.206;2024-03-02T03:50:53;53.45;;;31.92;;
20306;SDS011;10312;52.434;13.206;2024-03-02T03:53:19;56.90;;;33.13;;
20306;SDS011;10312;52.434;13.206;2024-03-02T03:55:46;53.47;;;30.85;;
20306;SDS011;10312;52.434;13.206;2024-03-02T03:58:15;54.97;;;33.13;;
20306;SDS011;10312;52.434;13.206;2024-03-02T04:00:47;61.22;;;33.92;;
20306;SDS011;10312;52.434;13.206;2024-03-02T04:03:14;51.33;;;31.73;;
20306;SDS011;10312;52.434;13.206;2024-03-02T04:05:41;64.03;;;34.88;;
20306;SDS011;10312;52.434;13.206;2024-03-02T04:08:08;57.40;;;33.13;;
20306;SDS011;10312;52.434;13.206;2024-03-02T04:10:35;60.42;;;34.25;;
20306;SDS011;10312;52.434;13.206;2024-03-02T04:13:02;63.35;;;33.97;;
20306;SDS011;10312;52.434;13.206;2024-03-02T04:15:29;55.20;;;31.88;;
20306;SDS011;10312;52.434;13.206;2024-03-02T04:17:56;62.63;;;34.00;;
20306;SDS011;10312;52.434;13.206;2024-03-02T04:20:23;59.63;;;33.13;;
20306;SDS011;10312;52.434;13.206;2024-03-02T04:22:50;58.25;;;34.35;;
20306;SDS011;10312;52.434;13.206;2024-03-02T04:25:17;57.67;;;33.30;;
20306;SDS011;10312;52.434;13.206;2024-03-02T04:27:44;52.55;;;32.28;;
20306;SDS011;10312;52.434;13.206;2024-03-02T04:30:11;52.17;;;31.17;;
20306;SDS011;10312;52.434;13.206;2024-03-02T04:32:38;54.60;;;31.90;;
20306;SDS011;10312;52.434;13.206;2024-03-02T04:35:05;57.45;;;33.80;;
20306;SDS011;10312;52.434;13.206;2024-03-02T04:37:34;60.97;;;35.65;;
20306;SDS011;10312;52.434;13.206;2024-03-02T04:40:01;51.15;;;30.88;;
20306;SDS011;10312;52.434;13.206;2024-03-02T04:42:31;58.05;;;32.65;;
20306;SDS011;10312;52.434;13.206;2024-03-02T04:44:58;53.92;;;32.28;;
20306;SDS011;10312;52.434;13.206;2024-03-02T04:47:25;51.40;;;30.40;;
20306;SDS011;10312;52.434;13.206;2024-03-02T04:49:52;50.10;;;30.77;;
20306;SDS011;10312;52.434;13.206;2024-03-02T04:52:19;51.25;;;31.55;;
20306;SDS011;10312;52.434;13.206;2024-03-02T04:54:45;49.28;;;29.85;;
20306;SDS011;10312;52.434;13.206;2024-03-02T04:57:31;49.90;;;30.73;;
20306;SDS011;10312;52.434;13.206;2024-03-02T04:59:58;51.88;;;30.05;;
20306;SDS011;10312;52.434;13.206;2024-03-02T05:02:25;54.08;;;30.92;;
20306;SDS011;10312;52.434;13.206;2024-03-02T05:04:52;55.60;;;33.50;;
20306;SDS011;10312;52.434;13.206;2024-03-02T05:07:18;59.33;;;33.72;;
20306;SDS011;10312;52.434;13.206;2024-03-02T05:09:48;57.63;;;34.50;;
20306;SDS011;10312;52.434;13.206;2024-03-02T05:12:15;56.10;;;33.47;;
20306;SDS011;10312;52.434;13.206;2024-03-02T05:15:02;55.83;;;33.17;;
20306;SDS011;10312;52.434;13.206;2024-03-02T05:17:29;51.90;;;31.13;;
20306;SDS011;10312;52.434;13.206;2024-03-02T05:20:02;52.05;;;30.42;;
20306;SDS011;10312;52.434;13.206;2024-03-02T05:22:30;51.22;;;30.17;;
20306;SDS011;10312;52.434;13.206;2024-03-02T05:24:57;58.08;;;33.90;;
20306;SDS011;10312;52.434;13.206;2024-03-02T05:27:26;56.58;;;32.88;;
20306;SDS011;10312;52.434;13.206;2024-03-02T05:29:53;60.60;;;35.20;;
20306;SDS011;10312;52.434;13.206;2024-03-02T05:32:20;60.05;;;34.67;;
20306;SDS011;10312;52.434;13.206;2024-03-02T05:34:47;59.28;;;35.03;;
20306;SDS011;10312;52.434;13.206;2024-03-02T05:37:14;57.53;;;33.03;;
20306;SDS011;10312;52.434;13.206;2024-03-02T05:39:41;64.93;;;36.38;;
20306;SDS011;10312;52.434;13.206;2024-03-02T05:42:10;62.13;;;35.67;;
20306;SDS011;10312;52.434;13.206;2024-03-02T05:44:37;56.85;;;35.05;;
20306;SDS011;10312;52.434;13.206;2024-03-02T05:47:04;68.40;;;36.13;;
20306;SDS011;10312;52.434;13.206;2024-03-02T05:49:31;65.95;;;35.63;;
20306;SDS011;10312;52.434;13.206;2024-03-02T05:51:58;56.38;;;34.15;;
20306;SDS011;10312;52.434;13.206;2024-03-02T05:54:25;63.92;;;35.80;;
20306;SDS011;10312;52.434;13.206;2024-03-02T05:56:52;59.40;;;34.30;;
20306;SDS011;10312;52.434;13.206;2024-03-02T05:59:19;62.50;;;34.25;;
20306;SDS011;10312;52.434;13.206;2024-03-02T06:01:46;62.33;;;34.72;;
20306;SDS011;10312;52.434;13.206;2024-03-02T06:04:13;63.42;;;34.53;;
20306;SDS011;10312;52.434;13.206;2024-03-02T06:06:40;61.60;;;35.65;;
20306;SDS011;10312;52.434;13.206;2024-03-02T06:09:07;63.42;;;36.60;;
20306;SDS011;10312;52.434;13.206;2024-03-02T06:11:35;61.60;;;33.97;;
20306;SDS011;10312;52.434;13.206;2024-03-02T06:14:06;58.15;;;33.35;;
20306;SDS011;10312;52.434;13.206;2024-03-02T06:16:33;55.05;;;32.08;;
20306;SDS011;10312;52.434;13.206;2024-03-02T06:19:00;63.15;;;35.38;;
20306;SDS011;10312;52.434;13.206;2024-03-02T06:21:28;59.72;;;33.35;;
20306;SDS011;10312;52.434;13.206;2024-03-02T06:23:55;61.45;;;33.63;;
20306;SDS011;10312;52.434;13.206;2024-03-02T06:26:23;57.45;;;32.60;;
20306;SDS011;10312;52.434;13.206;2024-03-02T06:28:51;62.40;;;33.72;;
20306;SDS011;10312;52.434;13.206;2024-03-02T06:31:19;57.53;;;33.95;;
20306;SDS011;10312;52.434;13.206;2024-03-02T06:33:46;56.95;;;32.60;;
20306;SDS011;10312;52.434;13.206;2024-03-02T06:36:13;58.13;;;33.72;;
20306;SDS011;10312;52.434;13.206;2024-03-02T06:38:42;58.33;;;33.80;;
20306;SDS011;10312;52.434;13.206;2024-03-02T06:41:09;61.53;;;34.35;;
20306;SDS011;10312;52.434;13.206;2024-03-02T06:43:36;57.97;;;31.77;;
20306;SDS011;10312;52.434;13.206;2024-03-02T06:46:03;60.70;;;35.47;;
20306;SDS011;10312;52.434;13.206;2024-03-02T06:48:30;64.07;;;35.92;;
20306;SDS011;10312;52.434;13.206;2024-03-02T06:50:57;60.95;;;33.85;;
20306;SDS011;10312;52.434;13.206;2024-03-02T06:53:25;54.17;;;32.45;;
20306;SDS011;10312;52.434;13.206;2024-03-02T06:55:52;63.60;;;33.85;;
20306;SDS011;10312;52.434;13.206;2024-03-02T06:58:18;66.05;;;35.50;;
20306;SDS011;10312;52.434;13.206;2024-03-02T07:00:46;60.00;;;34.03;;
20306;SDS011;10312;52.434;13.206;2024-03-02T07:03:14;62.65;;;35.20;;
20306;SDS011;10312;52.434;13.206;2024-03-02T07:05:41;59.35;;;34.05;;
20306;SDS011;10312;52.434;13.206;2024-03-02T07:08:08;58.00;;;33.65;;
20306;SDS011;10312;52.434;13.206;2024-03-02T07:10:35;58.72;;;33.25;;
20306;SDS011;10312;52.434;13.206;2024-03-02T07:13:02;62.28;;;34.88;;
20306;SDS011;10312;52.434;13.206;2024-03-02T07:15:29;55.88;;;33.47;;
20306;SDS011;10312;52.434;13.206;2024-03-02T07:18:14;56.47;;;33.17;;
20306;SDS011;10312;52.434;13.206;2024-03-02T07:20:41;59.00;;;33.20;;
20306;SDS011;10312;52.434;13.206;2024-03-02T07:23:08;60.55;;;33.80;;
20306;SDS011;10312;52.434;13.206;2024-03-02T07:25:36;54.10;;;33.03;;
20306;SDS011;10312;52.434;13.206;2024-03-02T07:28:06;62.60;;;34.78;;
20306;SDS011;10312;52.434;13.206;2024-03-02T07:30:33;55.25;;;32.85;;
20306;SDS011;10312;52.434;13.206;2024-03-02T07:33:01;59.10;;;34.35;;
20306;SDS011;10312;52.434;13.206;2024-03-02T07:35:28;59.75;;;34.00;;
20306;SDS011;10312;52.434;13.206;2024-03-02T07:37:58;67.97;;;34.95;;
20306;SDS011;10312;52.434;13.206;2024-03-02T07:40:25;59.75;;;33.53;;
20306;SDS011;10312;52.434;13.206;2024-03-02T07:42:55;60.63;;;35.60;;
20306;SDS011;10312;52.434;13.206;2024-03-02T07:45:22;59.35;;;34.70;;
20306;SDS011;10312;52.434;13.206;2024-03-02T07:47:50;62.22;;;33.97;;
20306;SDS011;10312;52.434;13.206;2024-03-02T07:50:17;60.35;;;34.25;;
20306;SDS011;10312;52.434;13.206;2024-03-02T07:52:44;59.60;;;33.60;;
20306;SDS011;10312;52.434;13.206;2024-03-02T07:55:11;58.72;;;33.75;;
20306;SDS011;10312;52.434;13.206;2024-03-02T07:57:38;60.67;;;33.00;;
20306;SDS011;10312;52.434;13.206;2024-03-02T08:00:06;58.30;;;32.78;;
20306;SDS011;10312;52.434;13.206;2024-03-02T08:02:37;59.65;;;34.25;;
20306;SDS011;10312;52.434;13.206;2024-03-02T08:05:04;57.55;;;33.20;;
20306;SDS011;10312;52.434;13.206;2024-03-02T08:07:30;56.75;;;32.60;;
20306;SDS011;10312;52.434;13.206;2024-03-02T08:10:00;61.47;;;32.80;;
20306;SDS011;10312;52.434;13.206;2024-03-02T08:12:28;61.60;;;34.75;;
20306;SDS011;10312;52.434;13.206;2024-03-02T08:14:55;59.50;;;34.03;;
20306;SDS011;10312;52.434;13.206;2024-03-02T08:17:22;59.97;;;33.28;;
20306;SDS011;10312;52.434;13.206;2024-03-02T08:19:49;61.67;;;33.92;;
20306;SDS011;10312;52.434;13.206;2024-03-02T08:22:16;57.08;;;32.25;;
20306;SDS011;10312;52.434;13.206;2024-03-02T08:24:43;62.25;;;32.78;;
20306;SDS011;10312;52.434;13.206;2024-03-02T08:27:10;59.60;;;32.83;;
20306;SDS011;10312;52.434;13.206;2024-03-02T08:29:36;53.55;;;32.47;;
20306;SDS011;10312;52.434;13.206;2024-03-02T08:32:04;54.78;;;31.75;;
20306;SDS011;10312;52.434;13.206;2024-03-02T08:34:32;54.42;;;32.05;;
20306;SDS011;10312;52.434;13.206;2024-03-02T08:36:59;53.85;;;30.67;;
20306;SDS011;10312;52.434;13.206;2024-03-02T08:39:26;58.47;;;31.60;;
20306;SDS011;10312;52.434;13.206;2024-03-02T08:41:52;58.85;;;31.67;;
20306;SDS011;10312;52.434;13.206;2024-03-02T08:44:19;59.75;;;31.15;;
20306;SDS011;10312;52.434;13.206;2024-03-02T08:46:46;58.05;;;30.85;;
20306;SDS011;10312;52.434;13.206;2024-03-02T08:49:13;61.97;;;31.50;;
20306;SDS011;10312;52.434;13.206;2024-03-02T08:51:41;59.20;;;31.80;;
20306;SDS011;10312;52.434;13.206;2024-03-02T08:54:12;59.80;;;31.70;;
20306;SDS011;10312;52.434;13.206;2024-03-02T08:56:39;58.15;;;32.13;;
20306;SDS011;10312;52.434;13.206;2024-03-02T08:59:07;53.35;;;30.02;;
20306;SDS011;10312;52.434;13.206;2024-03-02T09:01:34;57.97;;;30.23;;
20306;SDS011;10312;52.434;13.206;2024-03-02T09:04:02;53.60;;;30.58;;
20306;SDS011;10312;52.434;13.206;2024-03-02T09:06:28;65.72;;;33.58;;
20306;SDS011;10312;52.434;13.206;2024-03-02T09:08:56;54.55;;;31.30;;
20306;SDS011;10312;52.434;13.206;2024-03-02T09:11:23;52.25;;;30.33;;
20306;SDS011;10312;52.434;13.206;2024-03-02T09:13:50;56.35;;;30.70;;
20306;SDS011;10312;52.434;13.206;2024-03-02T09:16:17;54.60;;;31.02;;
20306;SDS011;10312;52.434;13.206;2024-03-02T09:18:45;65.47;;;34.08;;
20306;SDS011;10312;52.434;13.206;2024-03-02T09:21:12;54.40;;;31.45;;
20306;SDS011;10312;52.434;13.206;2024-03-02T09:23:38;57.10;;;31.13;;
20306;SDS011;10312;52.434;13.206;2024-03-02T09:26:06;55.13;;;30.77;;
20306;SDS011;10312;52.434;13.206;2024-03-02T09:28:34;57.50;;;31.33;;
20306;SDS011;10312;52.434;13.206;2024-03-02T09:31:01;55.03;;;31.80;;
20306;SDS011;10312;52.434;13.206;2024-03-02T09:33:27;55.72;;;31.10;;
20306;SDS011;10312;52.434;13.206;2024-03-02T09:35:54;55.20;;;30.58;;
20306;SDS011;10312;52.434;13.206;2024-03-02T09:38:21;55.88;;;30.08;;
20306;SDS011;10312;52.434;13.206;2024-03-02T09:40:48;53.20;;;30.02;;
20306;SDS011;10312;52.434;13.206;2024-03-02T09:43:16;54.75;;;30.35;;
20306;SDS011;10312;52.434;13.206;2024-03-02T09:45:43;52.80;;;30.05;;
20306;SDS011;10312;52.434;13.206;2024-03-02T09:48:10;50.53;;;28.13;;
20306;SDS011;10312;52.434;13.206;2024-03-02T09:50:37;47.35;;;27.23;;
20306;SDS011;10312;52.434;13.206;2024-03-02T09:53:05;55.78;;;29.92;;
20306;SDS011;10312;52.434;13.206;2024-03-02T09:55:34;47.55;;;27.65;;
20306;SDS011;10312;52.434;13.206;2024-03-02T09:58:01;49.53;;;27.52;;
20306;SDS011;10312;52.434;13.206;2024-03-02T10:00:28;49.20;;;27.52;;
20306;SDS011;10312;52.434;13.206;2024-03-02T10:02:55;48.45;;;27.38;;
20306;SDS011;10312;52.434;13.206;2024-03-02T10:05:27;43.53;;;26.73;;
20306;SDS011;10312;52.434;13.206;2024-03-02T10:08:00;46.03;;;26.67;;
20306;SDS011;10312;52.434;13.206;2024-03-02T10:10:38;47.70;;;27.15;;
20306;SDS011;10312;52.434;13.206;2024-03-02T10:13:07;42.13;;;25.58;;
20306;SDS011;10312;52.434;13.206;2024-03-02T10:15:35;42.92;;;26.02;;
20306;SDS011;10312;52.434;13.206;2024-03-02T10:18:11;41.33;;;25.50;;
20306;SDS011;10312;52.434;13.206;2024-03-02T10:20:39;46.88;;;26.80;;
20306;SDS011;10312;52.434;13.206;2024-03-02T10:23:10;47.42;;;25.95;;
20306;SDS011;10312;52.434;13.206;2024-03-02T10:25:37;44.03;;;26.25;;
20306;SDS011;10312;52.434;13.206;2024-03-02T10:28:17;45.00;;;25.60;;
20306;SDS011;10312;52.434;13.206;2024-03-02T10:30:47;44.25;;;23.92;;
20306;SDS011;10312;52.434;13.206;2024-03-02T10:33:17;38.83;;;23.90;;
20306;SDS011;10312;52.434;13.206;2024-03-02T10:35:43;41.05;;;24.58;;
20306;SDS011;10312;52.434;13.206;2024-03-02T10:38:11;40.35;;;22.88;;
20306;SDS011;10312;52.434;13.206;2024-03-02T10:40:38;37.22;;;22.63;;
20306;SDS011;10312;52.434;13.206;2024-03-02T10:43:05;38.70;;;23.65;;
20306;SDS011;10312;52.434;13.206;2024-03-02T10:45:34;40.15;;;22.63;;
20306;SDS011;10312;52.434;13.206;2024-03-02T10:48:02;38.55;;;23.08;;
20306;SDS011;10312;52.434;13.206;2024-03-02T10:50:29;35.72;;;21.35;;
20306;SDS011;10312;52.434;13.206;2024-03-02T10:52:57;37.00;;;22.45;;
20306;SDS011;10312;52.434;13.206;2024-03-02T10:55:23;38.45;;;20.73;;
20306;SDS011;10312;52.434;13.206;2024-03-02T10:57:52;41.05;;;21.67;;
20306;SDS011;10312;52.434;13.206;2024-03-02T11:00:26;38.55;;;22.10;;
20306;SDS011;10312;52.434;13.206;2024-03-02T11:03:07;33.35;;;21.00;;
20306;SDS011;10312;52.434;13.206;2024-03-02T11:05:39;33.50;;;20.63;;
20306;SDS011;10312;52.434;13.206;2024-03-02T11:08:08;32.45;;;19.65;;
20306;SDS011;10312;52.434;13.206;2024-03-02T11:10:48;37.13;;;20.23;;
20306;SDS011;10312;52.434;13.206;2024-03-02T11:13:22;33.75;;;20.50;;
20306;SDS011;10312;52.434;13.206;2024-03-02T11:15:55;32.55;;;19.42;;
20306;SDS011;10312;52.434;13.206;2024-03-02T11:18:26;29.95;;;19.95;;
20306;SDS011;10312;52.434;13.206;2024-03-02T11:20:54;34.20;;;19.65;;
20306;SDS011;10312;52.434;13.206;2024-03-02T11:23:21;31.65;;;19.52;;
20306;SDS011;10312;52.434;13.206;2024-03-02T11:28:47;30.67;;;19.40;;
20306;SDS011;10312;52.434;13.206;2024-03-02T11:31:15;32.75;;;19.40;;
20306;SDS011;10312;52.434;13.206;2024-03-02T11:33:43;30.88;;;19.08;;
20306;SDS011;10312;52.434;13.206;2024-03-02T11:36:10;26.67;;;17.65;;
20306;SDS011;10312;52.434;13.206;2024-03-02T11:38:38;30.58;;;19.10;;
20306;SDS011;10312;52.434;13.206;2024-03-02T11:41:06;31.10;;;18.85;;
20306;SDS011;10312;52.434;13.206;2024-03-02T11:43:38;29.13;;;18.50;;
20306;SDS011;10312;52.434;13.206;2024-03-02T11:46:06;32.53;;;19.23;;
20306;SDS011;10312;52.434;13.206;2024-03-02T11:48:35;29.13;;;18.50;;
20306;SDS011;10312;52.434;13.206;2024-03-02T11:51:03;30.63;;;17.63;;
20306;SDS011;10312;52.434;13.206;2024-03-02T11:53:30;27.95;;;18.75;;
20306;SDS011;10312;52.434;13.206;2024-03-02T11:56:01;28.90;;;17.55;;
20306;SDS011;10312;52.434;13.206;2024-03-02T11:58:28;28.80;;;18.00;;
20306;SDS011;10312;52.434;13.206;2024-03-02T12:00:56;27.00;;;17.45;;
20306;SDS011;10312;52.434;13.206;2024-03-02T12:03:25;30.42;;;17.75;;
20306;SDS011;10312;52.434;13.206;2024-03-02T12:05:53;28.13;;;17.67;;
20306;SDS011;10312;52.434;13.206;2024-03-02T12:08:20;27.60;;;17.55;;
20306;SDS011;10312;52.434;13.206;2024-03-02T12:10:58;31.45;;;18.48;;
20306;SDS011;10312;52.434;13.206;2024-03-02T12:13:26;27.77;;;16.75;;
20306;SDS011;10312;52.434;13.206;2024-03-02T12:15:53;28.17;;;16.38;;
20306;SDS011;10312;52.434;13.206;2024-03-02T12:18:22;27.67;;;16.80;;
20306;SDS011;10312;52.434;13.206;2024-03-02T12:20:49;29.98;;;17.73;;
20306;SDS011;10312;52.434;13.206;2024-03-02T12:23:19;25.13;;;16.02;;
20306;SDS011;10312;52.434;13.206;2024-03-02T12:25:49;24.55;;;16.48;;
20306;SDS011;10312;52.434;13.206;2024-03-02T12:28:16;26.10;;;15.85;;
20306;SDS011;10312;52.434;13.206;2024-03-02T12:30:44;28.17;;;16.10;;
20306;SDS011;10312;52.434;13.206;2024-03-02T12:33:11;27.77;;;17.45;;
20306;SDS011;10312;52.434;13.206;2024-03-02T12:35:40;24.52;;;15.85;;
20306;SDS011;10312;52.434;13.206;2024-03-02T12:38:06;26.63;;;15.60;;
20306;SDS011;10312;52.434;13.206;2024-03-02T12:40:33;23.88;;;16.17;;
20306;SDS011;10312;52.434;13.206;2024-03-02T12:43:01;24.88;;;15.70;;
20306;SDS011;10312;52.434;13.206;2024-03-02T12:45:28;25.20;;;16.92;;
20306;SDS011;10312;52.434;13.206;2024-03-02T12:47:55;26.70;;;16.27;;
20306;SDS011;10312;52.434;13.206;2024-03-02T12:50:22;22.38;;;15.00;;
20306;SDS011;10312;52.434;13.206;2024-03-02T12:52:55;24.60;;;16.00;;
20306;SDS011;10312;52.434;13.206;2024-03-02T12:55:23;20.83;;;14.38;;
20306;SDS011;10312;52.434;13.206;2024-03-02T12:57:50;24.92;;;15.00;;
20306;SDS011;10312;52.434;13.206;2024-03-02T13:00:19;22.15;;;15.05;;
20306;SDS011;10312;52.434;13.206;2024-03-02T13:02:46;21.92;;;14.13;;
20306;SDS011;10312;52.434;13.206;2024-03-02T13:05:18;20.58;;;14.55;;
20306;SDS011;10312;52.434;13.206;2024-03-02T13:07:49;22.20;;;14.00;;
20306;SDS011;10312;52.434;13.206;2024-03-02T13:10:16;21.70;;;14.68;;
20306;SDS011;10312;52.434;13.206;2024-03-02T13:12:45;26.67;;;15.48;;
20306;SDS011;10312;52.434;13.206;2024-03-02T13:15:13;21.27;;;14.48;;
20306;SDS011;10312;52.434;13.206;2024-03-02T13:17:46;21.88;;;14.05;;
20306;SDS011;10312;52.434;13.206;2024-03-02T13:20:14;22.23;;;14.82;;
20306;SDS011;10312;52.434;13.206;2024-03-02T13:22:41;24.58;;;14.65;;
20306;SDS011;10312;52.434;13.206;2024-03-02T13:25:09;23.70;;;13.88;;
20306;SDS011;10312;52.434;13.206;2024-03-02T13:27:38;22.98;;;14.75;;
20306;SDS011;10312;52.434;13.206;2024-03-02T13:30:05;22.40;;;14.32;;
20306;SDS011;10312;52.434;13.206;2024-03-02T13:32:34;22.10;;;14.43;;
20306;SDS011;10312;52.434;13.206;2024-03-02T13:35:01;23.73;;;14.60;;
20306;SDS011;10312;52.434;13.206;2024-03-02T13:37:29;24.50;;;14.10;;
20306;SDS011;10312;52.434;13.206;2024-03-02T13:39:56;21.98;;;13.85;;
20306;SDS011;10312;52.434;13.206;2024-03-02T13:42:23;22.90;;;15.07;;
20306;SDS011;10312;52.434;13.206;2024-03-02T13:44:50;22.45;;;14.95;;
20306;SDS011;10312;52.434;13.206;2024-03-02T13:47:17;25.33;;;16.90;;
20306;SDS011;10312;52.434;13.206;2024-03-02T13:49:44;21.85;;;14.38;;
20306;SDS011;10312;52.434;13.206;2024-03-02T13:52:13;19.88;;;13.15;;
20306;SDS011;10312;52.434;13.206;2024-03-02T13:54:41;21.27;;;12.98;;
20306;SDS011;10312;52.434;13.206;2024-03-02T13:57:09;21.67;;;12.63;;
20306;SDS011;10312;52.434;13.206;2024-03-02T13:59:37;18.48;;;12.65;;
20306;SDS011;10312;52.434;13.206;2024-03-02T14:02:05;23.58;;;13.10;;
20306;SDS011;10312;52.434;13.206;2024-03-02T14:04:33;20.75;;;12.07;;
20306;SDS011;10312;52.434;13.206;2024-03-02T14:07:00;25.13;;;12.52;;
20306;SDS011;10312;52.434;13.206;2024-03-02T14:09:28;22.33;;;14.00;;
20306;SDS011;10312;52.434;13.206;2024-03-02T14:11:55;21.27;;;12.55;;
20306;SDS011;10312;52.434;13.206;2024-03-02T14:14:22;18.92;;;11.57;;
20306;SDS011;10312;52.434;13.206;2024-03-02T14:16:50;18.98;;;11.88;;